sensor_id;sensor_type;location;lat;lon;timestamp;P1;durP1;ratioP1;P2;durP2;ratioP2
32094;SDS011;18608;53.688;10.748;2024-02-26T00:00:34;3.40;;;3.20;;
32094;SDS011;18608;53.688;10.748;2024-02-26T00:03:00;4.30;;;3.83;;
32094;SDS011;18608;53.688;10.748;2024-02-26T00:05:26;4.30;;;3.87;;
32094;SDS011;18608;53.688;10.748;2024-02-26T00:07:52;4.83;;;4.37;;
32094;SDS011;18608;53.688;10.748;2024-02-26T00:10:17;3.83;;;3.50;;
32094;SDS011;18608;53.688;10.748;2024-02-26T00:12:43;3.60;;;3.30;;
32094;SDS011;18608;53.688;10.748;2024-02-26T00:15:09;5.50;;;4.17;;
32094;SDS011;18608;53.688;10.748;2024-02-26T00:17:35;5.63;;;3.87;;
32094;SDS011;18608;53.688;10.748;2024-02-26T00:20:02;9.00;;;4.63;;
32094;SDS011;18608;53.688;10.748;2024-02-26T00:22:29;4.33;;;3.93;;
32094;SDS011;18608;53.688;10.748;2024-02-26T00:24:56;3.53;;;3.23;;
32094;SDS011;18608;53.688;10.748;2024-02-26T00:27:21;5.30;;;3.67;;
32094;SDS011;18608;53.688;10.748;2024-02-26T00:29:47;4.23;;;3.83;;
32094;SDS011;18608;53.688;10.748;2024-02-26T00:32:12;4.03;;;3.30;;
32094;SDS011;18608;53.688;10.748;2024-02-26T00:34:39;4.63;;;3.60;;
32094;SDS011;18608;53.688;10.748;2024-02-26T00:37:05;4.83;;;4.40;;
32094;SDS011;18608;53.688;10.748;2024-02-26T00:39:30;5.93;;;4.20;;
32094;SDS011;18608;53.688;10.748;2024-02-26T00:41:56;3.80;;;3.50;;
32094;SDS011;18608;53.688;10.748;2024-02-26T00:44:22;3.40;;;3.10;;
32094;SDS011;18608;53.688;10.748;2024-02-26T00:46:47;3.33;;;3.07;;
32094;SDS011;18608;53.688;10.748;2024-02-26T00:49:13;2.93;;;2.73;;
32094;SDS011;18608;53.688;10.748;2024-02-26T00:51:38;3.57;;;3.30;;
32094;SDS011;18608;53.688;10.748;2024-02-26T00:54:04;3.87;;;3.53;;
32094;SDS011;18608;53.688;10.748;2024-02-26T00:56:30;3.27;;;3.00;;
32094;SDS011;18608;53.688;10.748;2024-02-26T00:58:55;3.30;;;2.53;;
32094;SDS011;18608;53.688;10.748;2024-02-26T01:01:21;3.23;;;3.03;;
32094;SDS011;18608;53.688;10.748;2024-02-26T01:03:46;3.67;;;3.30;;
32094;SDS011;18608;53.688;10.748;2024-02-26T01:06:12;4.90;;;4.33;;
32094;SDS011;18608;53.688;10.748;2024-02-26T01:08:38;4.90;;;4.50;;
32094;SDS011;18608;53.688;10.748;2024-02-26T01:11:04;7.10;;;4.47;;
32094;SDS011;18608;53.688;10.748;2024-02-26T01:13:29;6.20;;;4.77;;
32094;SDS011;18608;53.688;10.748;2024-02-26T01:15:55;4.90;;;4.07;;
32094;SDS011;18608;53.688;10.748;2024-02-26T01:18:21;5.37;;;4.37;;
32094;SDS011;18608;53.688;10.748;2024-02-26T01:20:47;4.97;;;4.40;;
32094;SDS011;18608;53.688;10.748;2024-02-26T01:23:12;9.07;;;4.87;;
32094;SDS011;18608;53.688;10.748;2024-02-26T01:25:38;5.40;;;4.10;;
32094;SDS011;18608;53.688;10.748;2024-02-26T01:28:04;5.77;;;3.90;;
32094;SDS011;18608;53.688;10.748;2024-02-26T01:30:30;4.73;;;4.33;;
32094;SDS011;18608;53.688;10.748;2024-02-26T01:32:56;5.03;;;4.53;;
32094;SDS011;18608;53.688;10.748;2024-02-26T01:35:22;6.10;;;4.70;;
32094;SDS011;18608;53.688;10.748;2024-02-26T01:37:47;5.33;;;4.57;;
32094;SDS011;18608;53.688;10.748;2024-02-26T01:40:13;4.60;;;4.20;;
32094;SDS011;18608;53.688;10.748;2024-02-26T01:42:44;9.03;;;4.60;;
32094;SDS011;18608;53.688;10.748;2024-02-26T01:45:16;4.80;;;4.40;;
32094;SDS011;18608;53.688;10.748;2024-02-26T01:47:51;5.23;;;4.60;;
32094;SDS011;18608;53.688;10.748;2024-02-26T01:50:18;5.20;;;3.80;;
32094;SDS011;18608;53.688;10.748;2024-02-26T01:52:47;3.13;;;2.83;;
32094;SDS011;18608;53.688;10.748;2024-02-26T01:55:15;4.87;;;3.87;;
32094;SDS011;18608;53.688;10.748;2024-02-26T01:57:42;4.40;;;4.00;;
32094;SDS011;18608;53.688;10.748;2024-02-26T02:00:10;4.40;;;4.00;;
32094;SDS011;18608;53.688;10.748;2024-02-26T02:02:37;6.50;;;4.87;;
32094;SDS011;18608;53.688;10.748;2024-02-26T02:05:05;10.20;;;5.40;;
32094;SDS011;18608;53.688;10.748;2024-02-26T02:07:31;101.67;;;13.20;;
32094;SDS011;18608;53.688;10.748;2024-02-26T02:09:57;113.20;;;11.43;;
32094;SDS011;18608;53.688;10.748;2024-02-26T02:12:23;51.83;;;8.10;;
32094;SDS011;18608;53.688;10.748;2024-02-26T02:14:49;32.00;;;7.27;;
32094;SDS011;18608;53.688;10.748;2024-02-26T02:17:15;60.97;;;8.67;;
32094;SDS011;18608;53.688;10.748;2024-02-26T02:19:41;74.77;;;8.43;;
32094;SDS011;18608;53.688;10.748;2024-02-26T02:22:07;31.23;;;7.50;;
32094;SDS011;18608;53.688;10.748;2024-02-26T02:24:33;27.27;;;5.90;;
32094;SDS011;18608;53.688;10.748;2024-02-26T02:26:58;6.40;;;3.60;;
32094;SDS011;18608;53.688;10.748;2024-02-26T02:29:24;4.00;;;3.70;;
32094;SDS011;18608;53.688;10.748;2024-02-26T02:31:50;35.33;;;6.03;;
32094;SDS011;18608;53.688;10.748;2024-02-26T02:34:16;37.43;;;7.50;;
32094;SDS011;18608;53.688;10.748;2024-02-26T02:36:48;55.10;;;7.83;;
32094;SDS011;18608;53.688;10.748;2024-02-26T02:39:16;68.97;;;7.80;;
32094;SDS011;18608;53.688;10.748;2024-02-26T02:41:42;21.53;;;5.17;;
32094;SDS011;18608;53.688;10.748;2024-02-26T02:44:08;167.33;;;14.87;;
32094;SDS011;18608;53.688;10.748;2024-02-26T02:46:34;131.63;;;11.40;;
32094;SDS011;18608;53.688;10.748;2024-02-26T02:49:00;12.60;;;4.30;;
32094;SDS011;18608;53.688;10.748;2024-02-26T02:51:26;65.30;;;8.70;;
32094;SDS011;18608;53.688;10.748;2024-02-26T02:53:52;65.40;;;8.77;;
32094;SDS011;18608;53.688;10.748;2024-02-26T02:56:18;220.73;;;14.73;;
32094;SDS011;18608;53.688;10.748;2024-02-26T02:58:44;62.10;;;8.97;;
32094;SDS011;18608;53.688;10.748;2024-02-26T03:01:10;74.40;;;10.03;;
32094;SDS011;18608;53.688;10.748;2024-02-26T03:03:35;54.67;;;6.90;;
32094;SDS011;18608;53.688;10.748;2024-02-26T03:06:02;73.20;;;8.17;;
32094;SDS011;18608;53.688;10.748;2024-02-26T03:08:28;29.70;;;4.57;;
32094;SDS011;18608;53.688;10.748;2024-02-26T03:10:54;46.00;;;5.87;;
32094;SDS011;18608;53.688;10.748;2024-02-26T03:13:20;32.33;;;5.43;;
32094;SDS011;18608;53.688;10.748;2024-02-26T03:15:46;7.87;;;4.57;;
32094;SDS011;18608;53.688;10.748;2024-02-26T03:18:11;15.83;;;4.53;;
32094;SDS011;18608;53.688;10.748;2024-02-26T03:20:37;14.57;;;4.03;;
32094;SDS011;18608;53.688;10.748;2024-02-26T03:23:03;47.63;;;6.90;;
32094;SDS011;18608;53.688;10.748;2024-02-26T03:25:29;95.07;;;10.20;;
32094;SDS011;18608;53.688;10.748;2024-02-26T03:27:55;144.93;;;12.73;;
32094;SDS011;18608;53.688;10.748;2024-02-26T03:30:20;117.63;;;13.00;;
32094;SDS011;18608;53.688;10.748;2024-02-26T03:32:46;89.83;;;9.90;;
32094;SDS011;18608;53.688;10.748;2024-02-26T03:35:12;95.13;;;12.33;;
32094;SDS011;18608;53.688;10.748;2024-02-26T03:37:38;27.13;;;6.90;;
32094;SDS011;18608;53.688;10.748;2024-02-26T03:40:04;64.10;;;7.77;;
32094;SDS011;18608;53.688;10.748;2024-02-26T03:42:30;15.33;;;5.70;;
32094;SDS011;18608;53.688;10.748;2024-02-26T03:44:55;26.17;;;4.90;;
32094;SDS011;18608;53.688;10.748;2024-02-26T03:47:21;13.80;;;4.30;;
32094;SDS011;18608;53.688;10.748;2024-02-26T03:49:47;14.63;;;5.47;;
32094;SDS011;18608;53.688;10.748;2024-02-26T03:52:12;20.10;;;5.73;;
32094;SDS011;18608;53.688;10.748;2024-02-26T03:54:38;15.60;;;5.10;;
32094;SDS011;18608;53.688;10.748;2024-02-26T03:57:04;22.23;;;5.53;;
32094;SDS011;18608;53.688;10.748;2024-02-26T03:59:29;11.53;;;5.03;;
32094;SDS011;18608;53.688;10.748;2024-02-26T04:01:55;5.60;;;3.63;;
32094;SDS011;18608;53.688;10.748;2024-02-26T04:04:20;12.43;;;4.40;;
32094;SDS011;18608;53.688;10.748;2024-02-26T04:06:46;10.47;;;5.00;;
32094;SDS011;18608;53.688;10.748;2024-02-26T04:09:15;18.93;;;4.50;;
32094;SDS011;18608;53.688;10.748;2024-02-26T04:11:41;6.17;;;5.23;;
32094;SDS011;18608;53.688;10.748;2024-02-26T04:14:08;5.20;;;4.53;;
32094;SDS011;18608;53.688;10.748;2024-02-26T04:16:36;5.53;;;4.63;;
32094;SDS011;18608;53.688;10.748;2024-02-26T04:19:01;4.07;;;3.67;;
32094;SDS011;18608;53.688;10.748;2024-02-26T04:21:27;6.83;;;5.13;;
32094;SDS011;18608;53.688;10.748;2024-02-26T04:23:53;25.23;;;6.20;;
32094;SDS011;18608;53.688;10.748;2024-02-26T04:26:21;18.30;;;5.20;;
32094;SDS011;18608;53.688;10.748;2024-02-26T04:28:47;19.00;;;5.50;;
32094;SDS011;18608;53.688;10.748;2024-02-26T04:31:12;71.03;;;17.30;;
32094;SDS011;18608;53.688;10.748;2024-02-26T04:33:38;6.07;;;5.40;;
32094;SDS011;18608;53.688;10.748;2024-02-26T04:36:04;6.03;;;5.03;;
32094;SDS011;18608;53.688;10.748;2024-02-26T04:38:29;4.93;;;4.47;;
32094;SDS011;18608;53.688;10.748;2024-02-26T04:40:55;4.73;;;4.40;;
32094;SDS011;18608;53.688;10.748;2024-02-26T04:43:21;5.53;;;3.93;;
32094;SDS011;18608;53.688;10.748;2024-02-26T04:45:46;5.83;;;3.80;;
32094;SDS011;18608;53.688;10.748;2024-02-26T04:48:13;5.50;;;4.77;;
32094;SDS011;18608;53.688;10.748;2024-02-26T04:50:38;6.10;;;4.93;;
32094;SDS011;18608;53.688;10.748;2024-02-26T04:53:04;5.07;;;4.43;;
32094;SDS011;18608;53.688;10.748;2024-02-26T04:55:29;4.87;;;4.27;;
32094;SDS011;18608;53.688;10.748;2024-02-26T04:57:55;4.83;;;4.00;;
32094;SDS011;18608;53.688;10.748;2024-02-26T05:00:20;3.30;;;3.00;;
32094;SDS011;18608;53.688;10.748;2024-02-26T05:02:46;4.13;;;3.77;;
32094;SDS011;18608;53.688;10.748;2024-02-26T05:05:12;5.17;;;4.60;;
32094;SDS011;18608;53.688;10.748;2024-02-26T05:07:41;8.33;;;5.40;;
32094;SDS011;18608;53.688;10.748;2024-02-26T05:10:08;13.80;;;7.53;;
32094;SDS011;18608;53.688;10.748;2024-02-26T05:12:34;5.13;;;4.63;;
32094;SDS011;18608;53.688;10.748;2024-02-26T05:15:01;9.23;;;6.57;;
32094;SDS011;18608;53.688;10.748;2024-02-26T05:17:27;5.20;;;4.70;;
32094;SDS011;18608;53.688;10.748;2024-02-26T05:19:53;5.70;;;5.20;;
32094;SDS011;18608;53.688;10.748;2024-02-26T05:22:18;8.20;;;5.70;;
32094;SDS011;18608;53.688;10.748;2024-02-26T05:24:44;7.27;;;4.90;;
32094;SDS011;18608;53.688;10.748;2024-02-26T05:27:10;5.90;;;3.93;;
32094;SDS011;18608;53.688;10.748;2024-02-26T05:29:37;7.83;;;6.43;;
32094;SDS011;18608;53.688;10.748;2024-02-26T05:32:03;9.70;;;6.60;;
32094;SDS011;18608;53.688;10.748;2024-02-26T05:34:30;20.57;;;13.70;;
32094;SDS011;18608;53.688;10.748;2024-02-26T05:36:56;21.87;;;12.20;;
32094;SDS011;18608;53.688;10.748;2024-02-26T05:39:22;23.23;;;12.50;;
32094;SDS011;18608;53.688;10.748;2024-02-26T05:41:47;21.07;;;10.60;;
32094;SDS011;18608;53.688;10.748;2024-02-26T05:44:14;20.53;;;11.37;;
32094;SDS011;18608;53.688;10.748;2024-02-26T05:46:41;18.23;;;10.43;;
32094;SDS011;18608;53.688;10.748;2024-02-26T05:49:07;20.50;;;9.70;;
32094;SDS011;18608;53.688;10.748;2024-02-26T05:51:32;15.10;;;9.10;;
32094;SDS011;18608;53.688;10.748;2024-02-26T05:53:58;16.03;;;9.23;;
32094;SDS011;18608;53.688;10.748;2024-02-26T05:56:24;18.63;;;10.20;;
32094;SDS011;18608;53.688;10.748;2024-02-26T05:58:50;14.77;;;9.37;;
32094;SDS011;18608;53.688;10.748;2024-02-26T06:01:16;16.17;;;8.80;;
32094;SDS011;18608;53.688;10.748;2024-02-26T06:03:42;9.30;;;7.20;;
32094;SDS011;18608;53.688;10.748;2024-02-26T06:06:09;9.63;;;6.17;;
32094;SDS011;18608;53.688;10.748;2024-02-26T06:08:35;18.40;;;7.40;;
32094;SDS011;18608;53.688;10.748;2024-02-26T06:11:04;27.77;;;9.63;;
32094;SDS011;18608;53.688;10.748;2024-02-26T06:13:33;13.00;;;7.77;;
32094;SDS011;18608;53.688;10.748;2024-02-26T06:16:00;22.30;;;8.07;;
32094;SDS011;18608;53.688;10.748;2024-02-26T06:18:25;7.00;;;6.30;;
32094;SDS011;18608;53.688;10.748;2024-02-26T06:20:51;10.77;;;7.37;;
32094;SDS011;18608;53.688;10.748;2024-02-26T06:23:17;9.37;;;7.03;;
32094;SDS011;18608;53.688;10.748;2024-02-26T06:25:42;9.33;;;7.13;;
32094;SDS011;18608;53.688;10.748;2024-02-26T06:28:08;10.00;;;7.33;;
32094;SDS011;18608;53.688;10.748;2024-02-26T06:30:34;11.43;;;7.53;;
32094;SDS011;18608;53.688;10.748;2024-02-26T06:33:00;7.33;;;6.33;;
32094;SDS011;18608;53.688;10.748;2024-02-26T06:35:26;7.70;;;6.30;;
32094;SDS011;18608;53.688;10.748;2024-02-26T06:37:52;9.40;;;6.70;;
32094;SDS011;18608;53.688;10.748;2024-02-26T06:40:21;8.93;;;6.23;;
32094;SDS011;18608;53.688;10.748;2024-02-26T06:42:46;10.40;;;6.50;;
32094;SDS011;18608;53.688;10.748;2024-02-26T06:45:12;12.60;;;6.10;;
32094;SDS011;18608;53.688;10.748;2024-02-26T06:47:38;10.50;;;7.00;;
32094;SDS011;18608;53.688;10.748;2024-02-26T06:50:03;82.97;;;10.17;;
32094;SDS011;18608;53.688;10.748;2024-02-26T06:52:29;70.73;;;13.00;;
32094;SDS011;18608;53.688;10.748;2024-02-26T06:54:55;39.57;;;10.00;;
32094;SDS011;18608;53.688;10.748;2024-02-26T06:57:21;60.03;;;12.57;;
32094;SDS011;18608;53.688;10.748;2024-02-26T06:59:47;67.17;;;13.03;;
32094;SDS011;18608;53.688;10.748;2024-02-26T07:02:13;50.13;;;12.57;;
32094;SDS011;18608;53.688;10.748;2024-02-26T07:04:39;84.40;;;13.43;;
32094;SDS011;18608;53.688;10.748;2024-02-26T07:07:05;61.90;;;12.53;;
32094;SDS011;18608;53.688;10.748;2024-02-26T07:09:32;63.47;;;12.90;;
32094;SDS011;18608;53.688;10.748;2024-02-26T07:11:57;50.63;;;10.10;;
32094;SDS011;18608;53.688;10.748;2024-02-26T07:14:23;36.00;;;8.60;;
32094;SDS011;18608;53.688;10.748;2024-02-26T07:16:49;64.70;;;12.77;;
32094;SDS011;18608;53.688;10.748;2024-02-26T07:19:15;30.30;;;10.33;;
32094;SDS011;18608;53.688;10.748;2024-02-26T07:21:41;52.70;;;12.20;;
32094;SDS011;18608;53.688;10.748;2024-02-26T07:24:07;37.27;;;9.80;;
32094;SDS011;18608;53.688;10.748;2024-02-26T07:26:33;15.83;;;8.20;;
32094;SDS011;18608;53.688;10.748;2024-02-26T07:28:58;7.67;;;5.67;;
32094;SDS011;18608;53.688;10.748;2024-02-26T07:31:25;6.33;;;5.73;;
32094;SDS011;18608;53.688;10.748;2024-02-26T07:33:51;11.37;;;7.33;;
32094;SDS011;18608;53.688;10.748;2024-02-26T07:36:16;14.30;;;7.87;;
32094;SDS011;18608;53.688;10.748;2024-02-26T07:38:42;31.70;;;8.67;;
32094;SDS011;18608;53.688;10.748;2024-02-26T07:41:08;12.13;;;8.50;;
32094;SDS011;18608;53.688;10.748;2024-02-26T07:43:34;13.70;;;7.80;;
32094;SDS011;18608;53.688;10.748;2024-02-26T07:46:00;10.27;;;6.70;;
32094;SDS011;18608;53.688;10.748;2024-02-26T07:48:26;13.03;;;8.90;;
32094;SDS011;18608;53.688;10.748;2024-02-26T07:50:52;12.87;;;9.93;;
32094;SDS011;18608;53.688;10.748;2024-02-26T07:53:18;13.63;;;9.30;;
32094;SDS011;18608;53.688;10.748;2024-02-26T07:55:43;12.80;;;9.33;;
32094;SDS011;18608;53.688;10.748;2024-02-26T07:58:09;13.33;;;8.97;;
32094;SDS011;18608;53.688;10.748;2024-02-26T08:00:35;13.77;;;10.17;;
32094;SDS011;18608;53.688;10.748;2024-02-26T08:03:01;15.87;;;10.17;;
32094;SDS011;18608;53.688;10.748;2024-02-26T08:05:27;16.40;;;10.37;;
32094;SDS011;18608;53.688;10.748;2024-02-26T08:07:52;12.43;;;9.50;;
32094;SDS011;18608;53.688;10.748;2024-02-26T08:10:19;14.67;;;9.37;;
32094;SDS011;18608;53.688;10.748;2024-02-26T08:12:45;15.23;;;10.13;;
32094;SDS011;18608;53.688;10.748;2024-02-26T08:15:11;14.70;;;8.80;;
32094;SDS011;18608;53.688;10.748;2024-02-26T08:17:37;17.93;;;9.83;;
32094;SDS011;18608;53.688;10.748;2024-02-26T08:20:03;10.37;;;8.13;;
32094;SDS011;18608;53.688;10.748;2024-02-26T08:22:29;11.00;;;8.60;;
32094;SDS011;18608;53.688;10.748;2024-02-26T08:24:55;12.50;;;9.17;;
32094;SDS011;18608;53.688;10.748;2024-02-26T08:27:20;12.03;;;9.73;;
32094;SDS011;18608;53.688;10.748;2024-02-26T08:29:46;13.03;;;8.40;;
32094;SDS011;18608;53.688;10.748;2024-02-26T08:32:12;13.40;;;9.73;;
32094;SDS011;18608;53.688;10.748;2024-02-26T08:34:37;12.20;;;9.10;;
32094;SDS011;18608;53.688;10.748;2024-02-26T08:37:03;13.30;;;8.17;;
32094;SDS011;18608;53.688;10.748;2024-02-26T08:39:30;12.23;;;8.63;;
32094;SDS011;18608;53.688;10.748;2024-02-26T08:41:56;13.20;;;8.33;;
32094;SDS011;18608;53.688;10.748;2024-02-26T08:44:22;11.77;;;8.00;;
32094;SDS011;18608;53.688;10.748;2024-02-26T08:46:47;11.10;;;8.83;;
32094;SDS011;18608;53.688;10.748;2024-02-26T08:49:13;11.03;;;8.80;;
32094;SDS011;18608;53.688;10.748;2024-02-26T08:51:42;13.50;;;9.60;;
32094;SDS011;18608;53.688;10.748;2024-02-26T08:54:09;12.73;;;9.30;;
32094;SDS011;18608;53.688;10.748;2024-02-26T08:56:34;15.23;;;10.80;;
32094;SDS011;18608;53.688;10.748;2024-02-26T08:59:00;12.90;;;9.03;;
32094;SDS011;18608;53.688;10.748;2024-02-26T09:01:28;12.20;;;9.80;;
32094;SDS011;18608;53.688;10.748;2024-02-26T09:03:54;12.73;;;8.30;;
32094;SDS011;18608;53.688;10.748;2024-02-26T09:06:21;12.93;;;9.70;;
32094;SDS011;18608;53.688;10.748;2024-02-26T09:08:47;11.80;;;9.00;;
32094;SDS011;18608;53.688;10.748;2024-02-26T09:11:12;14.37;;;9.93;;
32094;SDS011;18608;53.688;10.748;2024-02-26T09:13:38;16.03;;;10.60;;
32094;SDS011;18608;53.688;10.748;2024-02-26T09:16:04;13.73;;;9.80;;
32094;SDS011;18608;53.688;10.748;2024-02-26T09:18:30;15.90;;;10.17;;
32094;SDS011;18608;53.688;10.748;2024-02-26T09:20:56;13.50;;;10.03;;
32094;SDS011;18608;53.688;10.748;2024-02-26T09:23:22;12.13;;;10.37;;
32094;SDS011;18608;53.688;10.748;2024-02-26T09:25:47;19.43;;;10.90;;
32094;SDS011;18608;53.688;10.748;2024-02-26T09:28:13;14.83;;;11.03;;
32094;SDS011;18608;53.688;10.748;2024-02-26T09:30:41;14.23;;;10.37;;
32094;SDS011;18608;53.688;10.748;2024-02-26T09:33:07;14.30;;;11.20;;
32094;SDS011;18608;53.688;10.748;2024-02-26T09:35:33;16.90;;;11.23;;
32094;SDS011;18608;53.688;10.748;2024-02-26T09:37:59;14.10;;;10.43;;
32094;SDS011;18608;53.688;10.748;2024-02-26T09:40:24;14.53;;;10.17;;
32094;SDS011;18608;53.688;10.748;2024-02-26T09:42:50;24.23;;;11.53;;
32094;SDS011;18608;53.688;10.748;2024-02-26T09:45:24;16.30;;;10.20;;
32094;SDS011;18608;53.688;10.748;2024-02-26T09:47:52;14.77;;;9.80;;
32094;SDS011;18608;53.688;10.748;2024-02-26T09:50:20;13.97;;;10.80;;
32094;SDS011;18608;53.688;10.748;2024-02-26T09:52:49;15.07;;;10.70;;
32094;SDS011;18608;53.688;10.748;2024-02-26T09:55:16;16.30;;;10.27;;
32094;SDS011;18608;53.688;10.748;2024-02-26T09:57:44;12.47;;;9.50;;
32094;SDS011;18608;53.688;10.748;2024-02-26T10:00:14;15.87;;;11.13;;
32094;SDS011;18608;53.688;10.748;2024-02-26T10:02:44;15.57;;;10.37;;
32094;SDS011;18608;53.688;10.748;2024-02-26T10:05:12;13.60;;;11.10;;
32094;SDS011;18608;53.688;10.748;2024-02-26T10:07:45;15.57;;;10.60;;
32094;SDS011;18608;53.688;10.748;2024-02-26T10:10:11;17.83;;;11.47;;
32094;SDS011;18608;53.688;10.748;2024-02-26T10:12:38;16.03;;;11.53;;
32094;SDS011;18608;53.688;10.748;2024-02-26T10:15:04;15.60;;;10.67;;
32094;SDS011;18608;53.688;10.748;2024-02-26T10:17:30;17.80;;;12.60;;
32094;SDS011;18608;53.688;10.748;2024-02-26T10:20:10;14.53;;;10.30;;
32094;SDS011;18608;53.688;10.748;2024-02-26T10:22:43;14.60;;;10.20;;
32094;SDS011;18608;53.688;10.748;2024-02-26T10:25:09;18.53;;;11.13;;
32094;SDS011;18608;53.688;10.748;2024-02-26T10:27:35;14.10;;;10.73;;
32094;SDS011;18608;53.688;10.748;2024-02-26T10:30:04;15.53;;;10.70;;
32094;SDS011;18608;53.688;10.748;2024-02-26T10:32:42;17.90;;;12.30;;
32094;SDS011;18608;53.688;10.748;2024-02-26T10:35:09;16.63;;;10.50;;
32094;SDS011;18608;53.688;10.748;2024-02-26T10:37:35;18.47;;;11.20;;
32094;SDS011;18608;53.688;10.748;2024-02-26T10:40:01;17.63;;;11.60;;
32094;SDS011;18608;53.688;10.748;2024-02-26T10:42:27;16.97;;;11.50;;
32094;SDS011;18608;53.688;10.748;2024-02-26T10:44:52;21.93;;;11.70;;
32094;SDS011;18608;53.688;10.748;2024-02-26T10:47:18;18.90;;;13.57;;
32094;SDS011;18608;53.688;10.748;2024-02-26T10:49:45;29.43;;;11.57;;
32094;SDS011;18608;53.688;10.748;2024-02-26T10:52:13;18.00;;;12.10;;
32094;SDS011;18608;53.688;10.748;2024-02-26T10:54:40;21.27;;;14.30;;
32094;SDS011;18608;53.688;10.748;2024-02-26T10:57:06;21.93;;;12.33;;
32094;SDS011;18608;53.688;10.748;2024-02-26T10:59:34;20.07;;;11.40;;
32094;SDS011;18608;53.688;10.748;2024-02-26T11:02:01;22.17;;;13.70;;
32094;SDS011;18608;53.688;10.748;2024-02-26T11:04:28;20.33;;;13.87;;
32094;SDS011;18608;53.688;10.748;2024-02-26T11:06:56;20.93;;;12.40;;
32094;SDS011;18608;53.688;10.748;2024-02-26T11:09:22;18.10;;;12.13;;
32094;SDS011;18608;53.688;10.748;2024-02-26T11:11:49;25.10;;;13.50;;
32094;SDS011;18608;53.688;10.748;2024-02-26T11:14:19;21.37;;;11.83;;
32094;SDS011;18608;53.688;10.748;2024-02-26T11:16:45;16.77;;;11.40;;
32094;SDS011;18608;53.688;10.748;2024-02-26T11:19:13;20.83;;;12.17;;
32094;SDS011;18608;53.688;10.748;2024-02-26T11:21:40;27.60;;;12.87;;
32094;SDS011;18608;53.688;10.748;2024-02-26T11:24:07;20.23;;;11.20;;
32094;SDS011;18608;53.688;10.748;2024-02-26T11:26:36;23.17;;;12.33;;
32094;SDS011;18608;53.688;10.748;2024-02-26T11:29:08;19.67;;;13.20;;
32094;SDS011;18608;53.688;10.748;2024-02-26T11:31:35;21.90;;;11.10;;
32094;SDS011;18608;53.688;10.748;2024-02-26T11:34:03;25.80;;;12.60;;
32094;SDS011;18608;53.688;10.748;2024-02-26T11:36:28;23.63;;;12.47;;
32094;SDS011;18608;53.688;10.748;2024-02-26T11:38:55;20.30;;;10.30;;
32094;SDS011;18608;53.688;10.748;2024-02-26T11:41:21;14.80;;;8.37;;
32094;SDS011;18608;53.688;10.748;2024-02-26T11:43:58;19.67;;;11.37;;
32094;SDS011;18608;53.688;10.748;2024-02-26T11:46:31;22.80;;;11.33;;
32094;SDS011;18608;53.688;10.748;2024-02-26T11:49:01;20.53;;;11.60;;
32094;SDS011;18608;53.688;10.748;2024-02-26T11:51:32;15.40;;;8.77;;
32094;SDS011;18608;53.688;10.748;2024-02-26T11:53:59;23.53;;;10.70;;
32094;SDS011;18608;53.688;10.748;2024-02-26T11:56:24;17.00;;;10.30;;
32094;SDS011;18608;53.688;10.748;2024-02-26T11:58:58;23.33;;;12.23;;
32094;SDS011;18608;53.688;10.748;2024-02-26T12:04:26;15.30;;;8.93;;
32094;SDS011;18608;53.688;10.748;2024-02-26T12:06:58;18.20;;;11.27;;
32094;SDS011;18608;53.688;10.748;2024-02-26T12:12:01;22.87;;;11.40;;
32094;SDS011;18608;53.688;10.748;2024-02-26T12:14:32;26.67;;;13.60;;
32094;SDS011;18608;53.688;10.748;2024-02-26T12:16:58;20.90;;;13.43;;
32094;SDS011;18608;53.688;10.748;2024-02-26T12:19:25;24.93;;;13.10;;
32094;SDS011;18608;53.688;10.748;2024-02-26T12:21:52;17.07;;;9.90;;
32094;SDS011;18608;53.688;10.748;2024-02-26T12:24:21;21.10;;;11.23;;
32094;SDS011;18608;53.688;10.748;2024-02-26T12:26:47;21.50;;;11.73;;
32094;SDS011;18608;53.688;10.748;2024-02-26T12:29:13;14.83;;;9.97;;
32094;SDS011;18608;53.688;10.748;2024-02-26T12:31:39;17.67;;;11.63;;
32094;SDS011;18608;53.688;10.748;2024-02-26T12:34:06;15.63;;;11.00;;
32094;SDS011;18608;53.688;10.748;2024-02-26T12:36:35;16.63;;;11.30;;
32094;SDS011;18608;53.688;10.748;2024-02-26T12:39:04;19.53;;;12.37;;
32094;SDS011;18608;53.688;10.748;2024-02-26T12:41:31;16.47;;;11.80;;
32094;SDS011;18608;53.688;10.748;2024-02-26T12:43:57;19.10;;;11.40;;
32094;SDS011;18608;53.688;10.748;2024-02-26T12:46:24;20.37;;;12.40;;
32094;SDS011;18608;53.688;10.748;2024-02-26T12:48:49;22.00;;;11.30;;
32094;SDS011;18608;53.688;10.748;2024-02-26T12:51:15;21.90;;;11.60;;
32094;SDS011;18608;53.688;10.748;2024-02-26T12:53:43;19.50;;;11.27;;
32094;SDS011;18608;53.688;10.748;2024-02-26T12:56:10;23.67;;;13.30;;
32094;SDS011;18608;53.688;10.748;2024-02-26T12:58:39;25.40;;;14.90;;
32094;SDS011;18608;53.688;10.748;2024-02-26T13:01:06;18.43;;;10.47;;
32094;SDS011;18608;53.688;10.748;2024-02-26T13:03:35;24.43;;;14.20;;
32094;SDS011;18608;53.688;10.748;2024-02-26T13:06:02;23.53;;;12.83;;
32094;SDS011;18608;53.688;10.748;2024-02-26T13:08:29;25.33;;;12.43;;
32094;SDS011;18608;53.688;10.748;2024-02-26T13:10:58;22.30;;;13.00;;
32094;SDS011;18608;53.688;10.748;2024-02-26T13:13:24;24.30;;;13.30;;
32094;SDS011;18608;53.688;10.748;2024-02-26T13:15:50;19.80;;;11.20;;
32094;SDS011;18608;53.688;10.748;2024-02-26T13:18:31;22.60;;;12.00;;
32094;SDS011;18608;53.688;10.748;2024-02-26T13:21:12;20.00;;;11.17;;
32094;SDS011;18608;53.688;10.748;2024-02-26T13:23:40;26.50;;;13.60;;
32094;SDS011;18608;53.688;10.748;2024-02-26T13:26:06;24.63;;;13.80;;
32094;SDS011;18608;53.688;10.748;2024-02-26T13:28:33;24.57;;;13.13;;
32094;SDS011;18608;53.688;10.748;2024-02-26T13:30:59;27.37;;;11.70;;
32094;SDS011;18608;53.688;10.748;2024-02-26T13:33:26;20.50;;;11.27;;
32094;SDS011;18608;53.688;10.748;2024-02-26T13:35:53;19.70;;;10.40;;
32094;SDS011;18608;53.688;10.748;2024-02-26T13:38:20;21.33;;;10.87;;
32094;SDS011;18608;53.688;10.748;2024-02-26T13:40:46;25.30;;;13.70;;
32094;SDS011;18608;53.688;10.748;2024-02-26T13:43:11;21.10;;;13.13;;
32094;SDS011;18608;53.688;10.748;2024-02-26T13:45:37;22.93;;;11.47;;
32094;SDS011;18608;53.688;10.748;2024-02-26T13:48:05;26.87;;;14.13;;
32094;SDS011;18608;53.688;10.748;2024-02-26T13:50:32;23.67;;;12.00;;
32094;SDS011;18608;53.688;10.748;2024-02-26T13:52:58;23.10;;;12.67;;
32094;SDS011;18608;53.688;10.748;2024-02-26T13:55:27;24.97;;;11.93;;
32094;SDS011;18608;53.688;10.748;2024-02-26T13:57:55;26.40;;;14.57;;
32094;SDS011;18608;53.688;10.748;2024-02-26T14:00:22;27.70;;;14.73;;
32094;SDS011;18608;53.688;10.748;2024-02-26T14:02:48;22.90;;;13.33;;
32094;SDS011;18608;53.688;10.748;2024-02-26T14:05:14;29.43;;;13.17;;
32094;SDS011;18608;53.688;10.748;2024-02-26T14:07:40;24.80;;;12.60;;
32094;SDS011;18608;53.688;10.748;2024-02-26T14:10:06;27.63;;;11.57;;
32094;SDS011;18608;53.688;10.748;2024-02-26T14:12:32;22.33;;;12.60;;
32094;SDS011;18608;53.688;10.748;2024-02-26T14:14:58;21.33;;;11.80;;
32094;SDS011;18608;53.688;10.748;2024-02-26T14:17:25;24.80;;;12.33;;
32094;SDS011;18608;53.688;10.748;2024-02-26T14:19:55;21.67;;;11.70;;